createdAt,value
2023-04-07T00:02:04.088Z,4.17
2023-04-07T00:04:32.659Z,4.50
2023-04-07T00:07:01.445Z,3.83
2023-04-07T00:09:29.875Z,4.63
2023-04-07T00:12:02.095Z,4.20
2023-04-07T00:14:30.438Z,4.30
2023-04-07T00:16:59.108Z,4.40
2023-04-07T00:19:27.515Z,3.67
2023-04-07T00:21:55.852Z,4.20
2023-04-07T00:24:33.732Z,4.27
2023-04-07T00:27:04.538Z,4.53
2023-04-07T00:29:32.923Z,3.90
2023-04-07T00:32:01.373Z,3.40
2023-04-07T00:34:30.022Z,3.73
2023-04-07T00:36:58.489Z,4.07
2023-04-07T00:39:27.643Z,3.57
2023-04-07T00:41:56.468Z,4.03
2023-04-07T00:44:26.354Z,3.37
2023-04-07T00:46:54.691Z,4.17
2023-04-07T00:49:23.079Z,3.70
2023-04-07T00:51:51.656Z,3.80
2023-04-07T00:54:20.105Z,3.93
2023-04-07T00:56:48.488Z,3.83
2023-04-07T00:59:17.043Z,3.40
2023-04-07T01:01:47.559Z,4.00
2023-04-07T01:04:18.725Z,4.27
2023-04-07T01:06:48.890Z,3.70
2023-04-07T01:09:18.585Z,3.80
2023-04-07T01:11:51.338Z,3.60
2023-04-07T01:14:19.938Z,3.80
2023-04-07T01:16:50.059Z,3.33
2023-04-07T01:19:18.926Z,4.87
2023-04-07T01:21:47.370Z,4.27
2023-04-07T01:24:33.706Z,4.40
2023-04-07T01:27:03.008Z,3.50
2023-04-07T01:29:36.854Z,4.20
2023-04-07T01:32:06.331Z,4.67
2023-04-07T01:34:34.896Z,4.10
2023-04-07T01:37:03.867Z,4.67
2023-04-07T01:39:32.255Z,4.90
2023-04-07T01:42:02.326Z,4.50
2023-04-07T01:44:30.792Z,4.10
2023-04-07T01:47:00.730Z,4.33
2023-04-07T01:49:29.167Z,4.27
2023-04-07T01:51:57.583Z,4.10
2023-04-07T01:54:26.073Z,4.30
2023-04-07T01:56:54.530Z,4.37
2023-04-07T01:59:22.986Z,4.03
2023-04-07T02:01:51.584Z,4.13
2023-04-07T02:04:22.777Z,5.97
2023-04-07T02:06:52.816Z,4.30
2023-04-07T02:09:21.720Z,4.63
2023-04-07T02:11:50.191Z,4.30
2023-04-07T02:14:20.404Z,4.20
2023-04-07T02:16:49.194Z,4.00
2023-04-07T02:19:17.872Z,4.30
2023-04-07T02:21:47.865Z,4.37
2023-04-07T02:24:16.283Z,4.17
2023-04-07T02:26:44.653Z,3.90
2023-04-07T02:29:13.255Z,3.80
2023-04-07T02:31:41.617Z,4.20
2023-04-07T02:34:10.076Z,3.70
2023-04-07T02:36:38.527Z,4.37
2023-04-07T02:39:08.265Z,3.83
2023-04-07T02:41:36.885Z,3.90
2023-04-07T02:44:05.348Z,4.50
2023-04-07T02:46:33.872Z,4.10
2023-04-07T02:49:02.648Z,4.13
2023-04-07T02:51:31.400Z,3.47
2023-04-07T02:53:59.872Z,3.83
2023-04-07T02:56:29.652Z,4.37
2023-04-07T02:58:58.311Z,3.40
2023-04-07T03:01:28.101Z,3.53
2023-04-07T03:03:56.916Z,3.17
2023-04-07T03:06:27.096Z,4.53
2023-04-07T03:08:55.488Z,3.63
2023-04-07T03:11:23.929Z,3.83
2023-04-07T03:13:53.816Z,4.10
2023-04-07T03:16:22.648Z,4.00
2023-04-07T03:18:51.042Z,3.80
2023-04-07T03:21:19.593Z,3.93
2023-04-07T03:23:47.997Z,3.70
2023-04-07T03:26:16.530Z,3.53
2023-04-07T03:28:44.936Z,3.60
2023-04-07T03:31:14.735Z,4.13
2023-04-07T03:33:43.172Z,3.40
2023-04-07T03:36:11.580Z,3.63
2023-04-07T03:38:39.960Z,3.80
2023-04-07T03:41:08.334Z,3.60
2023-04-07T03:43:37.020Z,3.87
2023-04-07T03:46:05.630Z,4.43
2023-04-07T03:48:35.749Z,3.80
2023-04-07T03:51:04.171Z,3.90
2023-04-07T03:53:32.639Z,3.87
2023-04-07T03:56:01.190Z,3.73
2023-04-07T03:58:29.591Z,4.53
2023-04-07T04:00:58.097Z,3.87
2023-04-07T04:03:26.659Z,4.33
2023-04-07T04:05:56.493Z,4.77
2023-04-07T04:08:25.045Z,5.07
2023-04-07T04:10:53.482Z,5.83
2023-04-07T04:13:23.061Z,4.10
2023-04-07T04:15:51.471Z,4.17
2023-04-07T04:18:20.017Z,3.43
2023-04-07T04:20:48.836Z,3.60
2023-04-07T04:23:18.616Z,3.47
2023-04-07T04:25:47.000Z,4.20
2023-04-07T04:28:15.474Z,3.47
2023-04-07T04:30:43.829Z,3.23
2023-04-07T04:33:12.229Z,3.77
2023-04-07T04:35:40.661Z,3.27
2023-04-07T04:38:10.518Z,3.07
2023-04-07T04:40:40.704Z,3.23
2023-04-07T04:43:09.653Z,2.90
2023-04-07T04:45:38.044Z,2.70
2023-04-07T04:48:06.967Z,3.07
2023-04-07T04:50:36.418Z,3.07
2023-04-07T04:53:04.937Z,3.33
2023-04-07T04:55:33.355Z,3.50
2023-04-07T04:58:03.192Z,3.50
2023-04-07T05:00:31.786Z,3.53
2023-04-07T05:03:00.612Z,2.90
2023-04-07T05:05:29.242Z,3.40
2023-04-07T05:07:57.618Z,2.90
2023-04-07T05:10:25.956Z,3.33
2023-04-07T05:12:54.343Z,3.43
2023-04-07T05:15:24.037Z,2.80
2023-04-07T05:17:52.489Z,2.87
2023-04-07T05:20:21.025Z,2.97
2023-04-07T05:22:49.513Z,2.80
2023-04-07T05:25:17.853Z,2.70
2023-04-07T05:27:46.584Z,2.60
2023-04-07T05:30:15.455Z,2.50
2023-04-07T05:32:45.518Z,3.10
2023-04-07T05:35:14.011Z,2.90
2023-04-07T05:37:42.438Z,2.40
2023-04-07T05:40:11.244Z,2.83
2023-04-07T05:42:39.943Z,2.30
2023-04-07T05:45:11.360Z,2.90
2023-04-07T05:47:39.812Z,2.87
2023-04-07T05:50:11.844Z,2.70
2023-04-07T05:52:40.361Z,2.83
2023-04-07T05:55:09.272Z,2.77
2023-04-07T05:57:37.878Z,2.40
2023-04-07T06:00:06.532Z,2.90
2023-04-07T06:02:35.126Z,2.63
2023-04-07T06:05:03.664Z,2.30
2023-04-07T06:07:33.485Z,2.20
2023-04-07T06:10:02.072Z,2.30
2023-04-07T06:12:30.521Z,2.53
2023-04-07T06:14:58.867Z,2.90
2023-04-07T06:17:27.261Z,2.27
2023-04-07T06:19:55.570Z,2.53
2023-04-07T06:22:24.176Z,2.47
2023-04-07T06:24:53.976Z,2.43
2023-04-07T06:27:23.123Z,2.40
2023-04-07T06:29:51.544Z,2.20
2023-04-07T06:32:20.436Z,2.30
2023-04-07T06:34:48.905Z,2.27
2023-04-07T06:37:17.634Z,1.80
2023-04-07T06:39:46.531Z,2.30
2023-04-07T06:42:16.258Z,2.63
2023-04-07T06:44:44.803Z,3.03
2023-04-07T06:47:13.185Z,2.90
2023-04-07T06:49:41.570Z,2.80
2023-04-07T06:52:10.052Z,2.23
2023-04-07T06:54:41.568Z,2.60
2023-04-07T06:57:12.182Z,2.87
2023-04-07T06:59:42.010Z,3.67
2023-04-07T07:02:10.734Z,2.80
2023-04-07T07:04:39.451Z,2.37
2023-04-07T07:07:08.095Z,2.60
2023-04-07T07:09:36.650Z,3.07
2023-04-07T07:12:06.354Z,3.60
2023-04-07T07:14:35.038Z,2.97
2023-04-07T07:17:04.846Z,3.00
2023-04-07T07:19:33.351Z,2.90
2023-04-07T07:22:01.799Z,2.90
2023-04-07T07:24:30.456Z,3.10
2023-04-07T07:26:58.838Z,2.87
2023-04-07T07:29:27.358Z,2.93
2023-04-07T07:31:56.313Z,2.80
2023-04-07T07:34:28.273Z,2.80
2023-04-07T07:36:56.650Z,2.80
2023-04-07T07:39:25.054Z,2.70
2023-04-07T07:41:53.450Z,2.73
2023-04-07T07:44:22.976Z,2.93
2023-04-07T07:46:51.457Z,3.60
2023-04-07T07:49:19.891Z,2.77
2023-04-07T07:51:49.686Z,3.47
2023-04-07T07:54:18.158Z,2.60
2023-04-07T07:56:46.509Z,2.80
2023-04-07T07:59:16.616Z,3.03
2023-04-07T08:01:46.162Z,2.73
2023-04-07T08:04:14.662Z,2.60
2023-04-07T08:06:43.153Z,2.70
2023-04-07T08:09:12.861Z,3.13
2023-04-07T08:11:44.243Z,2.43
2023-04-07T08:14:12.735Z,2.93
2023-04-07T08:16:41.436Z,2.47
2023-04-07T08:19:09.992Z,2.63
2023-04-07T08:21:38.542Z,2.43
2023-04-07T08:24:07.059Z,2.60
2023-04-07T08:26:36.859Z,2.30
2023-04-07T08:29:05.221Z,2.60
2023-04-07T08:31:33.597Z,2.17
2023-04-07T08:34:01.980Z,2.37
2023-04-07T08:36:31.599Z,1.93
2023-04-07T08:39:01.992Z,2.57
2023-04-07T08:41:31.613Z,2.47
2023-04-07T08:44:01.375Z,2.37
2023-04-07T08:46:29.813Z,2.27
2023-04-07T08:48:58.644Z,2.90
2023-04-07T08:51:29.706Z,3.00
2023-04-07T08:54:00.264Z,3.43
2023-04-07T08:56:28.633Z,2.37
2023-04-07T08:58:57.219Z,2.33
2023-04-07T09:01:27.070Z,2.10
2023-04-07T09:03:55.640Z,2.43
2023-04-07T09:06:24.144Z,2.43
2023-04-07T09:08:52.626Z,1.93
2023-04-07T09:11:21.346Z,1.73
2023-04-07T09:13:52.718Z,1.80
2023-04-07T09:16:21.151Z,2.90
2023-04-07T09:18:51.160Z,2.47
2023-04-07T09:21:19.624Z,2.20
2023-04-07T09:23:49.307Z,1.93
2023-04-07T09:26:22.126Z,1.93
2023-04-07T09:28:52.005Z,2.50
2023-04-07T09:31:22.297Z,2.00
2023-04-07T09:33:52.828Z,2.37
2023-04-07T09:36:21.257Z,2.53
2023-04-07T09:38:49.607Z,2.00
2023-04-07T09:41:18.337Z,2.03
2023-04-07T09:43:47.246Z,2.60
2023-04-07T09:46:16.650Z,1.97
2023-04-07T09:48:45.481Z,2.47
2023-04-07T09:51:15.824Z,2.43
2023-04-07T09:53:44.872Z,2.30
2023-04-07T09:56:13.268Z,2.63
2023-04-07T09:58:41.980Z,2.43
2023-04-07T10:01:11.029Z,2.40
2023-04-07T10:03:39.760Z,2.13
2023-04-07T10:06:08.380Z,2.70
2023-04-07T10:08:40.736Z,2.50
2023-04-07T10:11:09.295Z,2.67
2023-04-07T10:13:38.399Z,2.00
2023-04-07T10:16:07.547Z,2.03
2023-04-07T10:18:36.336Z,2.40
2023-04-07T10:21:05.367Z,2.40
2023-04-07T10:23:37.095Z,2.17
2023-04-07T10:26:07.351Z,2.57
2023-04-07T10:28:35.937Z,2.30
2023-04-07T10:31:04.389Z,2.50
2023-04-07T10:33:49.175Z,2.27
2023-04-07T10:36:20.443Z,2.10
2023-04-07T10:39:07.296Z,2.50
2023-04-07T10:41:37.692Z,2.03
2023-04-07T10:44:06.132Z,2.23
2023-04-07T10:47:05.259Z,1.90
2023-04-07T10:49:35.102Z,2.37
2023-04-07T10:52:22.226Z,1.90
2023-04-07T10:54:50.564Z,2.10
2023-04-07T10:57:21.681Z,2.17
2023-04-07T11:00:09.236Z,2.20
2023-04-07T11:02:38.291Z,1.97
2023-04-07T11:05:07.507Z,2.17
2023-04-07T11:07:46.100Z,2.00
2023-04-07T11:10:15.996Z,2.90
2023-04-07T11:12:46.124Z,2.20
2023-04-07T11:15:21.986Z,2.30
2023-04-07T11:17:58.335Z,2.53
2023-04-07T11:20:29.224Z,1.93
2023-04-07T11:23:01.383Z,2.00
2023-04-07T11:25:31.266Z,3.50
2023-04-07T11:28:01.206Z,1.80
2023-04-07T11:30:30.082Z,2.07
2023-04-07T11:33:01.662Z,2.60
2023-04-07T11:35:30.611Z,2.40
2023-04-07T11:38:04.461Z,2.80
2023-04-07T11:40:34.481Z,2.03
2023-04-07T11:43:05.375Z,2.23
2023-04-07T11:45:34.713Z,2.20
2023-04-07T11:48:17.479Z,1.67
2023-04-07T11:50:45.927Z,1.90
2023-04-07T11:53:15.087Z,2.50
2023-04-07T11:55:43.645Z,1.80
2023-04-07T11:58:13.824Z,1.90
2023-04-07T12:00:55.900Z,1.93
2023-04-07T12:03:24.709Z,2.43
2023-04-07T12:05:54.851Z,2.10
2023-04-07T12:08:23.430Z,2.10
2023-04-07T12:10:52.932Z,2.00
2023-04-07T12:13:23.792Z,2.13
2023-04-07T12:15:53.132Z,1.87
2023-04-07T12:18:22.099Z,1.90
2023-04-07T12:20:50.814Z,2.20
2023-04-07T12:23:25.391Z,2.37
2023-04-07T12:25:55.265Z,1.87
2023-04-07T12:28:25.332Z,1.87
2023-04-07T12:30:53.813Z,2.27
2023-04-07T12:33:22.378Z,1.93
2023-04-07T12:35:51.032Z,3.53
2023-04-07T12:38:19.376Z,2.20
2023-04-07T12:40:47.726Z,1.73
2023-04-07T12:43:16.305Z,1.73
2023-04-07T12:45:46.219Z,2.00
2023-04-07T12:48:14.642Z,1.73
2023-04-07T12:50:43.056Z,2.00
2023-04-07T12:53:11.683Z,2.70
2023-04-07T12:55:40.212Z,2.27
2023-04-07T12:58:09.787Z,2.10
2023-04-07T13:00:38.270Z,2.17
2023-04-07T13:03:08.677Z,2.43
2023-04-07T13:05:37.406Z,3.03
2023-04-07T13:08:06.126Z,3.07
2023-04-07T13:10:34.690Z,2.70
2023-04-07T13:13:03.158Z,2.50
2023-04-07T13:15:32.194Z,2.40
2023-04-07T13:18:01.069Z,2.63
2023-04-07T13:20:31.001Z,2.67
2023-04-07T13:23:07.462Z,2.77
2023-04-07T13:25:36.509Z,2.63
2023-04-07T13:28:04.987Z,3.70
2023-04-07T13:30:33.534Z,2.50
2023-04-07T13:33:02.235Z,2.87
2023-04-07T13:35:35.830Z,2.50
2023-04-07T13:38:04.559Z,2.73
2023-04-07T13:40:33.139Z,2.50
2023-04-07T13:43:01.693Z,2.53
2023-04-07T13:45:30.221Z,2.70
2023-04-07T13:47:58.784Z,2.70
2023-04-07T13:50:27.250Z,2.90
2023-04-07T13:52:56.999Z,3.00
2023-04-07T13:55:25.746Z,2.90
2023-04-07T13:57:54.176Z,3.03
2023-04-07T14:00:22.646Z,2.53
2023-04-07T14:02:51.184Z,3.10
2023-04-07T14:05:19.730Z,3.00
2023-04-07T14:07:48.607Z,3.57
2023-04-07T14:10:18.608Z,2.43
2023-04-07T14:12:47.185Z,3.63
2023-04-07T14:15:17.685Z,3.47
2023-04-07T14:17:46.769Z,2.33
2023-04-07T14:20:15.336Z,3.13
2023-04-07T14:22:45.133Z,3.10
2023-04-07T14:25:13.760Z,2.67
2023-04-07T14:27:43.533Z,3.10
2023-04-07T14:30:12.496Z,3.23
2023-04-07T14:32:43.854Z,3.10
2023-04-07T14:35:15.628Z,2.80
2023-04-07T14:37:44.189Z,3.03
2023-04-07T14:40:12.826Z,3.27
2023-04-07T14:42:41.676Z,3.23
2023-04-07T14:45:12.844Z,2.77
2023-04-07T14:47:41.225Z,3.30
2023-04-07T14:50:15.970Z,2.63
2023-04-07T14:52:53.477Z,3.50
2023-04-07T14:55:22.225Z,2.93
2023-04-07T14:57:50.631Z,3.00
2023-04-07T15:00:20.954Z,3.13
2023-04-07T15:02:49.446Z,2.97
2023-04-07T15:05:18.164Z,3.13
2023-04-07T15:07:50.258Z,2.57
2023-04-07T15:10:19.187Z,3.03
2023-04-07T15:12:49.002Z,3.07
2023-04-07T15:15:17.550Z,3.67
2023-04-07T15:17:47.851Z,3.60
2023-04-07T15:20:16.180Z,2.87
2023-04-07T15:22:44.807Z,3.30
2023-04-07T15:25:13.251Z,3.27
2023-04-07T15:27:41.654Z,2.80
2023-04-07T15:30:10.499Z,3.00
2023-04-07T15:32:38.994Z,3.40
2023-04-07T15:35:09.341Z,3.87
2023-04-07T15:37:38.546Z,3.23
2023-04-07T15:40:07.404Z,3.30
2023-04-07T15:42:41.816Z,2.97
2023-04-07T15:45:11.158Z,3.83
2023-04-07T15:47:39.617Z,3.17
2023-04-07T15:50:10.728Z,3.50
2023-04-07T15:52:39.158Z,3.73
2023-04-07T15:55:07.719Z,3.70
2023-04-07T15:57:36.341Z,3.70
2023-04-07T16:00:05.613Z,3.90
2023-04-07T16:02:34.296Z,3.63
2023-04-07T16:05:03.024Z,2.90
2023-04-07T16:07:32.849Z,3.77
2023-04-07T16:10:01.243Z,3.30
2023-04-07T16:12:29.740Z,3.60
2023-04-07T16:14:58.222Z,4.07
2023-04-07T16:17:26.806Z,3.80
2023-04-07T16:19:55.296Z,3.43
2023-04-07T16:22:23.672Z,3.90
2023-04-07T16:24:53.375Z,4.07
2023-04-07T16:27:21.751Z,4.37
2023-04-07T16:29:50.235Z,3.70
2023-04-07T16:32:18.716Z,3.80
2023-04-07T16:34:47.179Z,3.53
2023-04-07T16:37:16.339Z,4.40
2023-04-07T16:39:46.276Z,4.57
2023-04-07T16:42:16.042Z,4.20
2023-04-07T16:44:44.424Z,4.03
2023-04-07T16:47:12.843Z,4.10
2023-04-07T16:49:41.459Z,3.77
2023-04-07T16:52:10.256Z,4.40
2023-04-07T16:54:38.841Z,4.30
2023-04-07T16:57:07.646Z,4.20
2023-04-07T16:59:37.853Z,4.50
2023-04-07T17:02:11.358Z,4.73
2023-04-07T17:04:40.142Z,4.17
2023-04-07T17:07:08.854Z,4.23
2023-04-07T17:09:38.078Z,4.07
2023-04-07T17:12:07.809Z,3.80
2023-04-07T17:14:37.699Z,4.00
2023-04-07T17:17:06.398Z,4.20
2023-04-07T17:19:35.674Z,5.03
2023-04-07T17:22:04.174Z,4.20
2023-04-07T17:24:32.707Z,4.33
2023-04-07T17:27:01.144Z,4.20
2023-04-07T17:29:31.350Z,4.50
2023-04-07T17:32:01.483Z,4.03
2023-04-07T17:34:30.038Z,4.13
2023-04-07T17:36:58.891Z,4.83
2023-04-07T17:39:27.248Z,4.27
2023-04-07T17:41:56.131Z,4.30
2023-04-07T17:44:24.580Z,4.17
2023-04-07T17:46:54.103Z,4.30
2023-04-07T17:49:24.631Z,4.40
2023-04-07T17:51:54.039Z,5.20
2023-04-07T17:54:22.538Z,5.10
2023-04-07T17:56:51.109Z,4.70
2023-04-07T17:59:20.519Z,4.87
2023-04-07T18:01:49.475Z,5.33
2023-04-07T18:04:18.049Z,4.77
2023-04-07T18:06:48.004Z,5.57
2023-04-07T18:09:16.438Z,4.70
2023-04-07T18:11:56.956Z,5.43
2023-04-07T18:14:26.801Z,4.70
2023-04-07T18:16:56.887Z,5.07
2023-04-07T18:19:26.099Z,5.23
2023-04-07T18:22:01.267Z,5.40
2023-04-07T18:24:29.960Z,5.27
2023-04-07T18:26:58.782Z,5.33
2023-04-07T18:29:27.576Z,5.03
2023-04-07T18:31:57.898Z,5.07
2023-04-07T18:34:26.920Z,5.90
2023-04-07T18:36:55.472Z,6.30
2023-04-07T18:39:28.300Z,6.23
2023-04-07T18:41:57.966Z,6.03
2023-04-07T18:44:28.605Z,5.87
2023-04-07T18:46:57.095Z,6.10
2023-04-07T18:49:27.917Z,6.77
2023-04-07T18:51:56.881Z,5.83
2023-04-07T18:54:28.006Z,6.40
2023-04-07T18:56:57.020Z,6.23
2023-04-07T18:59:26.113Z,6.60
2023-04-07T19:01:54.580Z,6.73
2023-04-07T19:04:24.894Z,5.90
2023-04-07T19:06:53.581Z,6.53
2023-04-07T19:09:22.012Z,6.00
2023-04-07T19:11:52.425Z,6.20
2023-04-07T19:14:21.132Z,5.93
2023-04-07T19:16:49.598Z,6.67
2023-04-07T19:19:22.007Z,6.77
2023-04-07T19:21:50.910Z,7.23
2023-04-07T19:24:19.286Z,6.60
2023-04-07T19:26:47.845Z,6.47
2023-04-07T19:29:18.266Z,5.90
2023-04-07T19:31:48.013Z,7.40
2023-04-07T19:34:16.824Z,7.40
2023-04-07T19:36:45.347Z,6.67
2023-04-07T19:39:13.911Z,6.73
2023-04-07T19:41:42.392Z,7.47
2023-04-07T19:44:11.694Z,7.07
2023-04-07T19:46:41.610Z,8.03
2023-04-07T19:49:10.988Z,7.27
2023-04-07T19:51:39.734Z,7.77
2023-04-07T19:54:09.093Z,7.17
2023-04-07T19:56:37.609Z,6.97
2023-04-07T19:59:06.699Z,8.07
2023-04-07T20:01:36.012Z,7.30
2023-04-07T20:04:06.190Z,7.43
2023-04-07T20:06:36.660Z,7.57
2023-04-07T20:09:05.390Z,6.73
2023-04-07T20:11:34.081Z,10.03
2023-04-07T20:14:02.473Z,8.57
2023-04-07T20:16:33.903Z,7.17
2023-04-07T20:19:03.291Z,9.07
2023-04-07T20:21:33.476Z,7.93
2023-04-07T20:24:02.049Z,8.53
2023-04-07T20:26:30.562Z,10.00
2023-04-07T20:28:59.303Z,9.10
2023-04-07T20:31:27.738Z,8.00
2023-04-07T20:33:56.560Z,7.50
2023-04-07T20:36:25.051Z,8.57
2023-04-07T20:38:55.843Z,8.67
2023-04-07T20:41:24.586Z,9.13
2023-04-07T20:43:54.903Z,10.13
2023-04-07T20:46:23.501Z,10.63
2023-04-07T20:48:51.997Z,8.70
2023-04-07T20:51:20.488Z,8.80
2023-04-07T20:53:49.090Z,8.53
2023-04-07T20:56:19.275Z,8.00
2023-04-07T20:58:48.419Z,8.27
2023-04-07T21:01:17.199Z,7.90
2023-04-07T21:03:46.359Z,8.27
2023-04-07T21:06:15.015Z,8.20
2023-04-07T21:08:43.714Z,8.13
2023-04-07T21:11:12.180Z,9.30
2023-04-07T21:13:42.696Z,8.80
2023-04-07T21:16:11.433Z,8.40
2023-04-07T21:18:39.935Z,9.03
2023-04-07T21:21:08.797Z,9.40
2023-04-07T21:23:37.318Z,8.33
2023-04-07T21:26:05.781Z,8.90
2023-04-07T21:28:34.680Z,7.83
2023-04-07T21:31:05.987Z,8.70
2023-04-07T21:33:34.495Z,9.10
2023-04-07T21:36:03.725Z,9.30
2023-04-07T21:38:32.672Z,8.97
2023-04-07T21:41:01.592Z,9.10
2023-04-07T21:43:30.034Z,9.00
2023-04-07T21:45:58.838Z,9.57
2023-04-07T21:48:29.257Z,9.00
2023-04-07T21:50:58.002Z,10.40
2023-04-07T21:53:26.744Z,9.37
2023-04-07T21:55:55.410Z,10.03
2023-04-07T21:58:26.980Z,9.07
2023-04-07T22:00:55.922Z,9.10
2023-04-07T22:03:25.309Z,9.30
2023-04-07T22:05:55.933Z,8.10
2023-04-07T22:08:24.697Z,9.10
2023-04-07T22:10:53.140Z,9.47
2023-04-07T22:13:22.179Z,9.13
2023-04-07T22:15:51.367Z,8.83
2023-04-07T22:18:22.052Z,9.70
2023-04-07T22:20:50.724Z,9.60
2023-04-07T22:23:20.677Z,9.97
2023-04-07T22:25:49.293Z,10.50
2023-04-07T22:28:17.863Z,9.63
2023-04-07T22:30:46.423Z,9.97
2023-04-07T22:33:15.054Z,10.07
2023-04-07T22:35:44.316Z,9.30
2023-04-07T22:38:13.639Z,10.17
2023-04-07T22:40:43.506Z,10.50
2023-04-07T22:43:11.871Z,9.80
2023-04-07T22:45:41.820Z,10.97
2023-04-07T22:48:11.078Z,10.90
2023-04-07T22:50:40.057Z,11.03
2023-04-07T22:53:08.438Z,10.97
2023-04-07T22:55:37.101Z,10.90
2023-04-07T22:58:07.028Z,11.93
2023-04-07T23:00:35.461Z,12.30
2023-04-07T23:03:04.538Z,12.23
2023-04-07T23:05:37.033Z,12.37
2023-04-07T23:08:05.696Z,12.13
2023-04-07T23:10:34.484Z,13.23
2023-04-07T23:13:02.937Z,14.60
2023-04-07T23:15:32.765Z,13.20
2023-04-07T23:18:01.788Z,13.67
2023-04-07T23:20:32.984Z,13.33
2023-04-07T23:23:01.855Z,14.03
2023-04-07T23:25:30.303Z,14.43
2023-04-07T23:28:01.837Z,14.93
2023-04-07T23:30:31.247Z,14.60
2023-04-07T23:33:02.004Z,15.50
2023-04-07T23:35:30.898Z,15.87
2023-04-07T23:38:00.942Z,17.23
2023-04-07T23:40:29.714Z,17.30
2023-04-07T23:43:01.873Z,17.40
2023-04-07T23:45:30.546Z,18.97
2023-04-07T23:47:59.010Z,17.90
2023-04-07T23:50:29.485Z,18.87
2023-04-07T23:52:58.269Z,18.53
2023-04-07T23:55:27.379Z,17.57
2023-04-07T23:57:56.554Z,16.70
